createdAt,value
2019-01-18T00:02:04.997Z,158.75
2019-01-18T00:04:36.246Z,153.00
2019-01-18T00:07:07.834Z,153.75
2019-01-18T00:09:39.407Z,151.50
2019-01-18T00:12:10.901Z,157.00
2019-01-18T00:14:42.543Z,156.75
2019-01-18T00:17:13.813Z,162.00
2019-01-18T00:19:45.455Z,157.75
2019-01-18T00:22:16.954Z,148.50
2019-01-18T00:24:48.683Z,153.25
2019-01-18T00:27:19.891Z,149.25
2019-01-18T00:29:51.374Z,150.00
2019-01-18T00:32:22.553Z,152.75
2019-01-18T00:34:53.865Z,162.25
2019-01-18T00:37:25.265Z,164.25
2019-01-18T00:39:56.630Z,156.75
2019-01-18T00:42:28.045Z,155.50
2019-01-18T00:45:03.545Z,150.00
2019-01-18T00:47:35.211Z,160.00
2019-01-18T00:50:09.073Z,160.75
2019-01-18T00:52:40.361Z,156.25
2019-01-18T00:55:13.099Z,159.25
2019-01-18T00:57:44.964Z,153.75
2019-01-18T01:00:19.805Z,162.50
2019-01-18T01:02:51.387Z,155.50
2019-01-18T01:05:22.847Z,157.50
2019-01-18T01:07:54.047Z,149.75
2019-01-18T01:10:25.612Z,142.50
2019-01-18T01:12:57.334Z,157.50
2019-01-18T01:15:28.710Z,154.75
2019-01-18T01:17:59.921Z,157.50
2019-01-18T01:20:31.388Z,149.50
2019-01-18T01:23:02.833Z,148.00
2019-01-18T01:25:35.338Z,156.25
2019-01-18T01:28:06.890Z,143.00
2019-01-18T01:30:38.481Z,148.75
2019-01-18T01:33:09.621Z,153.75
2019-01-18T01:35:41.054Z,143.00
2019-01-18T01:38:12.432Z,145.50
2019-01-18T01:40:44.313Z,147.25
2019-01-18T01:43:15.770Z,156.00
2019-01-18T01:45:47.085Z,158.00
2019-01-18T01:48:18.614Z,153.00
2019-01-18T01:50:50.083Z,155.25
2019-01-18T01:53:21.348Z,159.75
2019-01-18T01:55:52.594Z,150.50
2019-01-18T01:58:23.907Z,168.50
2019-01-18T02:00:55.380Z,161.75
2019-01-18T02:03:26.810Z,168.00
2019-01-18T02:05:58.139Z,193.25
2019-01-18T02:08:29.404Z,197.75
2019-01-18T02:11:01.535Z,194.75
2019-01-18T02:13:32.807Z,201.50
2019-01-18T02:16:04.431Z,170.25
2019-01-18T02:18:36.094Z,174.50
2019-01-18T02:21:08.004Z,164.75
2019-01-18T02:23:39.351Z,162.00
2019-01-18T02:26:11.794Z,150.00
2019-01-18T02:28:43.647Z,143.00
2019-01-18T02:31:14.701Z,143.75
2019-01-18T02:33:47.054Z,150.75
2019-01-18T02:36:18.197Z,154.50
2019-01-18T02:38:49.523Z,159.50
2019-01-18T02:41:21.116Z,162.50
2019-01-18T02:43:52.696Z,165.25
2019-01-18T02:46:24.389Z,167.25
2019-01-18T02:48:55.765Z,157.25
2019-01-18T02:51:27.367Z,164.75
2019-01-18T02:53:59.042Z,147.00
2019-01-18T02:56:30.431Z,153.00
2019-01-18T02:59:01.790Z,150.25
2019-01-18T03:01:33.361Z,147.25
2019-01-18T03:04:05.138Z,152.50
2019-01-18T03:06:37.180Z,126.00
2019-01-18T03:09:10.686Z,153.25
2019-01-18T03:11:42.695Z,147.50
2019-01-18T03:14:14.097Z,154.50
2019-01-18T03:16:46.566Z,151.75
2019-01-18T03:19:18.323Z,162.50
2019-01-18T03:21:49.710Z,165.25
2019-01-18T03:24:21.186Z,161.50
2019-01-18T03:26:52.823Z,150.75
2019-01-18T03:29:24.184Z,153.50
2019-01-18T03:31:55.620Z,156.25
2019-01-18T03:34:27.022Z,159.25
2019-01-18T03:36:59.038Z,147.75
2019-01-18T03:39:30.374Z,151.50
2019-01-18T03:42:02.610Z,159.00
2019-01-18T03:44:33.521Z,166.75
2019-01-18T03:47:04.965Z,154.00
2019-01-18T03:49:36.012Z,158.25
2019-01-18T03:52:07.360Z,161.25
2019-01-18T03:54:38.262Z,139.75
2019-01-18T03:57:09.478Z,149.25
2019-01-18T03:59:40.895Z,159.00
2019-01-18T04:02:13.396Z,148.75
2019-01-18T04:04:44.842Z,157.00
2019-01-18T04:07:16.343Z,150.75
2019-01-18T04:09:47.710Z,157.00
2019-01-18T04:12:19.418Z,152.50
2019-01-18T04:14:51.164Z,149.75
2019-01-18T04:17:22.782Z,150.25
2019-01-18T04:19:54.089Z,155.75
2019-01-18T04:22:25.825Z,146.25
2019-01-18T04:24:57.015Z,150.00
2019-01-18T04:27:29.463Z,141.25
2019-01-18T04:30:01.136Z,130.25
2019-01-18T04:32:32.602Z,125.75
2019-01-18T04:35:03.927Z,140.50
2019-01-18T04:37:35.550Z,132.50
2019-01-18T04:40:09.411Z,133.50
2019-01-18T04:42:41.508Z,148.25
2019-01-18T04:45:13.590Z,140.00
2019-01-18T04:47:44.641Z,134.25
2019-01-18T04:50:21.410Z,123.50
2019-01-18T04:52:52.723Z,141.00
2019-01-18T04:55:24.677Z,143.25
2019-01-18T04:57:56.004Z,116.75
2019-01-18T05:00:29.332Z,144.25
2019-01-18T05:03:01.006Z,128.00
2019-01-18T05:05:32.795Z,138.00
2019-01-18T05:08:04.561Z,137.00
2019-01-18T05:10:36.260Z,124.00
2019-01-18T05:13:08.258Z,135.50
2019-01-18T05:15:40.100Z,137.25
2019-01-18T05:18:11.531Z,123.75
2019-01-18T05:20:42.779Z,125.25
2019-01-18T05:23:14.076Z,137.75
2019-01-18T05:25:45.599Z,135.00
2019-01-18T05:28:17.681Z,128.75
2019-01-18T05:30:49.305Z,136.75
2019-01-18T05:33:20.831Z,131.00
2019-01-18T05:35:52.712Z,125.50
2019-01-18T05:38:24.327Z,131.75
2019-01-18T05:40:55.860Z,126.25
2019-01-18T05:43:27.459Z,123.25
2019-01-18T05:45:58.947Z,104.00
2019-01-18T05:48:30.309Z,119.75
2019-01-18T05:51:03.218Z,124.00
2019-01-18T05:53:34.602Z,122.25
2019-01-18T05:56:06.076Z,113.50
2019-01-18T05:58:37.260Z,124.50
2019-01-18T06:01:10.656Z,126.25
2019-01-18T06:03:42.131Z,115.25
2019-01-18T06:06:13.953Z,128.25
2019-01-18T06:08:45.176Z,123.50
2019-01-18T06:11:16.589Z,130.00
2019-01-18T06:13:48.223Z,122.50
2019-01-18T06:16:20.050Z,123.00
2019-01-18T06:18:51.881Z,117.25
2019-01-18T06:21:22.946Z,122.50
2019-01-18T06:23:54.800Z,118.00
2019-01-18T06:26:26.317Z,118.50
2019-01-18T06:28:57.536Z,113.75
2019-01-18T06:31:28.857Z,116.25
2019-01-18T06:34:00.549Z,105.25
2019-01-18T06:36:34.388Z,97.25
2019-01-18T06:39:08.265Z,89.20
2019-01-18T06:41:49.240Z,97.20
2019-01-18T06:44:20.473Z,79.50
2019-01-18T06:46:51.583Z,90.25
2019-01-18T06:49:22.781Z,92.50
2019-01-18T06:51:54.225Z,105.50
2019-01-18T06:54:25.796Z,96.00
2019-01-18T06:56:57.167Z,102.00
2019-01-18T06:59:29.247Z,106.00
2019-01-18T07:02:00.787Z,105.00
2019-01-18T07:04:32.119Z,110.75
2019-01-18T07:07:03.390Z,100.25
2019-01-18T07:09:35.117Z,86.00
2019-01-18T07:12:07.567Z,81.20
2019-01-18T07:14:39.274Z,75.00
2019-01-18T07:17:10.834Z,81.20
2019-01-18T07:19:42.277Z,78.20
2019-01-18T07:22:13.613Z,75.60
2019-01-18T07:24:45.293Z,75.40
2019-01-18T07:27:17.108Z,80.60
2019-01-18T07:29:48.826Z,78.80
2019-01-18T07:32:20.302Z,74.20
2019-01-18T07:34:51.575Z,70.60
2019-01-18T07:37:23.326Z,65.80
2019-01-18T07:39:55.307Z,66.80
2019-01-18T07:42:27.014Z,75.40
2019-01-18T07:44:58.695Z,75.40
2019-01-18T07:47:30.410Z,73.20
2019-01-18T07:50:01.988Z,68.60
2019-01-18T07:52:33.673Z,70.40
2019-01-18T07:55:07.670Z,79.00
2019-01-18T07:57:39.069Z,60.80
2019-01-18T08:00:19.771Z,70.40
2019-01-18T08:02:51.464Z,67.60
2019-01-18T08:05:24.297Z,63.60
2019-01-18T08:07:55.940Z,65.20
2019-01-18T08:10:27.769Z,64.80
2019-01-18T08:12:59.231Z,54.00
2019-01-18T08:15:31.903Z,55.20
2019-01-18T08:18:03.590Z,52.60
2019-01-18T08:20:35.247Z,43.60
2019-01-18T08:23:06.731Z,44.20
2019-01-18T08:25:38.126Z,52.60
2019-01-18T08:28:09.823Z,57.60
2019-01-18T08:30:41.459Z,50.60
2019-01-18T08:33:13.001Z,48.40
2019-01-18T08:35:44.613Z,46.80
2019-01-18T08:38:15.888Z,43.80
2019-01-18T08:40:47.481Z,45.20
2019-01-18T08:43:20.264Z,50.40
2019-01-18T08:45:57.066Z,50.20
2019-01-18T08:48:28.857Z,48.00
2019-01-18T08:51:00.053Z,50.00
2019-01-18T08:53:31.279Z,44.20
2019-01-18T08:56:03.339Z,44.40
2019-01-18T08:58:34.727Z,49.20
2019-01-18T09:01:06.583Z,48.80
2019-01-18T09:03:38.063Z,54.80
2019-01-18T09:06:09.807Z,55.20
2019-01-18T09:08:40.905Z,53.20
2019-01-18T09:11:12.479Z,57.00
2019-01-18T09:13:43.573Z,59.00
2019-01-18T09:16:15.226Z,53.00
2019-01-18T09:18:46.411Z,58.60
2019-01-18T09:21:18.329Z,58.80
2019-01-18T09:23:49.935Z,58.80
2019-01-18T09:26:21.896Z,60.20
2019-01-18T09:28:53.505Z,58.40
2019-01-18T09:31:25.343Z,66.60
2019-01-18T09:33:57.252Z,65.20
2019-01-18T09:36:28.694Z,65.20
2019-01-18T09:39:00.357Z,70.40
2019-01-18T09:41:31.901Z,60.40
2019-01-18T09:44:03.411Z,61.40
2019-01-18T09:46:34.798Z,64.60
2019-01-18T09:49:06.618Z,66.80
2019-01-18T09:51:38.266Z,70.60
2019-01-18T09:54:10.512Z,70.20
2019-01-18T09:56:42.626Z,71.80
2019-01-18T09:59:14.709Z,69.40
2019-01-18T10:01:49.481Z,71.40
2019-01-18T10:04:20.095Z,66.80
2019-01-18T10:06:52.443Z,61.00
2019-01-18T10:09:24.226Z,60.00
2019-01-18T10:11:56.119Z,58.20
2019-01-18T10:14:27.921Z,52.00
2019-01-18T10:17:02.520Z,63.00
2019-01-18T10:19:35.377Z,60.60
2019-01-18T10:22:07.140Z,62.00
2019-01-18T10:24:38.555Z,62.40
2019-01-18T10:27:10.013Z,64.20
2019-01-18T10:29:41.235Z,65.80
2019-01-18T10:32:12.589Z,60.80
2019-01-18T10:34:44.151Z,72.80
2019-01-18T10:37:15.568Z,68.20
2019-01-18T10:39:47.174Z,69.20
2019-01-18T10:42:18.770Z,69.80
2019-01-18T10:44:50.587Z,67.20
2019-01-18T10:47:22.077Z,66.40
2019-01-18T10:49:53.517Z,75.20
2019-01-18T10:52:25.194Z,77.20
2019-01-18T10:54:56.595Z,75.60
2019-01-18T10:57:28.086Z,74.80
2019-01-18T10:59:59.744Z,77.20
2019-01-18T11:02:31.464Z,68.80
2019-01-18T11:05:03.458Z,78.40
2019-01-18T11:07:35.121Z,78.20
2019-01-18T11:10:06.892Z,68.60
2019-01-18T11:12:38.218Z,77.80
2019-01-18T11:15:11.775Z,80.40
2019-01-18T11:17:43.507Z,76.60
2019-01-18T11:20:22.945Z,69.80
2019-01-18T11:22:58.150Z,70.80
2019-01-18T11:25:31.898Z,68.00
2019-01-18T11:28:02.224Z,73.00
2019-01-18T11:30:33.725Z,74.40
2019-01-18T11:33:05.308Z,71.60
2019-01-18T11:35:38.449Z,73.40
2019-01-18T11:38:10.011Z,66.00
2019-01-18T11:40:41.472Z,69.40
2019-01-18T11:43:13.110Z,73.40
2019-01-18T11:45:44.530Z,66.00
2019-01-18T11:48:16.235Z,71.00
2019-01-18T11:50:48.787Z,68.60
2019-01-18T11:53:20.052Z,67.40
2019-01-18T11:55:51.704Z,67.40
2019-01-18T11:58:23.280Z,67.40
2019-01-18T12:00:55.049Z,65.40
2019-01-18T12:03:26.420Z,65.80
2019-01-18T12:05:58.811Z,63.80
2019-01-18T12:08:30.232Z,68.00
2019-01-18T12:11:01.572Z,63.60
2019-01-18T12:13:33.352Z,68.40
2019-01-18T12:16:04.892Z,69.40
2019-01-18T12:18:36.385Z,61.00
2019-01-18T12:21:07.538Z,70.00
2019-01-18T12:23:39.072Z,70.40
2019-01-18T12:26:10.360Z,71.20
2019-01-18T12:28:41.734Z,67.00
2019-01-18T12:31:13.265Z,69.20
2019-01-18T12:33:44.394Z,76.60
2019-01-18T12:36:15.633Z,76.20
2019-01-18T12:38:46.961Z,81.60
2019-01-18T12:41:18.116Z,76.40
2019-01-18T12:43:49.403Z,84.80
2019-01-18T12:46:21.380Z,83.60
2019-01-18T12:48:53.453Z,80.80
2019-01-18T12:51:24.737Z,80.20
2019-01-18T12:53:56.315Z,89.20
2019-01-18T12:56:27.618Z,85.60
2019-01-18T12:58:58.829Z,92.20
2019-01-18T13:01:30.115Z,89.20
2019-01-18T13:04:01.584Z,86.00
2019-01-18T13:06:33.095Z,101.50
2019-01-18T13:09:05.967Z,113.75
2019-01-18T13:11:37.982Z,122.25
2019-01-18T13:14:09.212Z,113.25
2019-01-18T13:16:43.729Z,107.50
2019-01-18T13:19:23.182Z,112.50
2019-01-18T13:21:54.919Z,109.25
2019-01-18T13:24:27.062Z,103.00
2019-01-18T13:26:59.798Z,109.50
2019-01-18T13:29:31.192Z,113.25
2019-01-18T13:32:02.641Z,115.50
2019-01-18T13:34:34.189Z,110.50
2019-01-18T13:37:05.768Z,111.00
2019-01-18T13:39:37.126Z,113.00
2019-01-18T13:42:08.798Z,104.75
2019-01-18T13:44:43.708Z,104.75
2019-01-18T13:47:18.249Z,108.75
2019-01-18T13:49:46.604Z,108.25
2019-01-18T13:52:21.552Z,112.50
2019-01-18T13:54:53.212Z,107.00
2019-01-18T13:57:24.890Z,116.00
2019-01-18T13:59:56.594Z,119.25
2019-01-18T14:02:29.693Z,123.75
2019-01-18T14:05:00.947Z,129.25
2019-01-18T14:07:32.862Z,126.00
2019-01-18T14:10:04.758Z,139.25
2019-01-18T14:12:37.133Z,143.75
2019-01-18T14:15:09.076Z,143.00
2019-01-18T14:17:40.533Z,135.75
2019-01-18T14:20:13.894Z,142.25
2019-01-18T14:22:45.384Z,152.75
2019-01-18T14:25:16.800Z,164.25
2019-01-18T14:27:48.494Z,171.50
2019-01-18T14:30:22.513Z,170.50
2019-01-18T14:32:55.582Z,185.75
2019-01-18T14:35:27.244Z,177.00
2019-01-18T14:37:58.503Z,181.25
2019-01-18T14:40:30.037Z,207.75
2019-01-18T14:43:01.714Z,176.50
2019-01-18T14:45:36.733Z,192.00
2019-01-18T14:48:08.675Z,196.75
2019-01-18T14:50:40.327Z,191.50
2019-01-18T14:53:12.031Z,196.00
2019-01-18T14:55:43.376Z,203.20
2019-01-18T14:58:15.328Z,215.25
2019-01-18T15:00:46.718Z,203.25
2019-01-18T15:03:18.865Z,209.00
2019-01-18T15:05:50.401Z,211.25
2019-01-18T15:08:24.300Z,209.40
2019-01-18T15:10:55.920Z,210.00
2019-01-18T15:13:27.465Z,214.00
2019-01-18T15:15:59.435Z,232.80
2019-01-18T15:18:31.038Z,244.25
2019-01-18T15:21:02.466Z,253.60
2019-01-18T15:23:33.773Z,244.67
2019-01-18T15:26:05.642Z,277.20
2019-01-18T15:28:44.594Z,284.60
2019-01-18T15:31:15.888Z,283.60
2019-01-18T15:33:47.824Z,278.60
2019-01-18T15:36:19.208Z,282.00
2019-01-18T15:38:51.477Z,265.20
2019-01-18T15:41:22.859Z,265.20
2019-01-18T15:43:55.601Z,263.50
2019-01-18T15:46:27.219Z,281.60
2019-01-18T15:48:58.628Z,269.60
2019-01-18T15:51:29.706Z,270.00
2019-01-18T15:54:01.610Z,267.33
2019-01-18T15:56:33.126Z,276.40
2019-01-18T15:59:04.795Z,282.20
2019-01-18T16:01:36.361Z,293.20
2019-01-18T16:04:09.073Z,289.60
2019-01-18T16:06:40.630Z,278.60
2019-01-18T16:09:12.783Z,268.60
2019-01-18T16:11:44.250Z,271.20
2019-01-18T16:14:15.734Z,282.60
2019-01-18T16:16:56.802Z,300.60
2019-01-18T16:19:28.596Z,291.60
2019-01-18T16:22:00.253Z,278.20
2019-01-18T16:24:31.765Z,291.20
2019-01-18T16:27:03.469Z,276.20
2019-01-18T16:29:34.763Z,292.80
2019-01-18T16:32:06.503Z,298.00
2019-01-18T16:34:37.993Z,285.20
2019-01-18T16:37:09.362Z,279.00
2019-01-18T16:39:41.443Z,283.00
2019-01-18T16:42:15.443Z,286.60
2019-01-18T16:44:47.184Z,273.40
2019-01-18T16:47:18.470Z,274.40
2019-01-18T16:49:49.871Z,265.80
2019-01-18T16:52:21.116Z,280.80
2019-01-18T16:54:52.607Z,273.20
2019-01-18T16:57:23.965Z,281.40
2019-01-18T16:59:55.444Z,266.40
2019-01-18T17:02:26.668Z,278.40
2019-01-18T17:04:58.191Z,268.80
2019-01-18T17:07:29.737Z,278.60
2019-01-18T17:10:01.740Z,289.00
2019-01-18T17:12:32.851Z,269.80
2019-01-18T17:15:04.767Z,290.00
2019-01-18T17:17:36.359Z,275.00
2019-01-18T17:20:12.544Z,282.20
2019-01-18T17:22:43.987Z,282.20
2019-01-18T17:25:17.476Z,271.80
2019-01-18T17:27:49.232Z,263.00
2019-01-18T17:30:21.186Z,283.60
2019-01-18T17:32:52.853Z,283.20
2019-01-18T17:35:33.471Z,269.40
2019-01-18T17:38:29.101Z,285.00
2019-01-18T17:41:45.988Z,272.00
2019-01-18T17:45:06.821Z,270.20
2019-01-18T17:48:25.075Z,263.40
2019-01-18T17:51:24.749Z,269.00
2019-01-18T17:54:22.963Z,254.20
2019-01-18T17:57:40.800Z,260.00
2019-01-18T18:00:48.612Z,277.20
2019-01-18T18:03:55.232Z,270.80
2019-01-18T18:07:07.392Z,272.60
2019-01-18T18:10:11.188Z,271.60
2019-01-18T18:13:30.090Z,274.80
2019-01-18T18:16:32.504Z,273.20
2019-01-18T18:19:30.949Z,273.80
2019-01-18T18:22:36.685Z,262.80
2019-01-18T18:25:35.836Z,277.20
2019-01-18T18:28:37.327Z,261.00
2019-01-18T18:31:23.446Z,273.60
2019-01-18T18:34:14.786Z,277.80
2019-01-18T18:37:15.978Z,270.60
2019-01-18T18:40:52.258Z,268.40
2019-01-18T18:43:50.350Z,254.00
2019-01-18T18:46:43.873Z,266.40
2019-01-18T18:49:28.573Z,265.00
2019-01-18T18:52:39.705Z,266.60
2019-01-18T18:55:30.403Z,269.60
2019-01-18T18:58:38.128Z,261.20
2019-01-18T19:01:52.569Z,241.80
2019-01-18T19:04:56.356Z,272.80
2019-01-18T19:07:46.232Z,265.40
2019-01-18T19:10:39.372Z,263.00
2019-01-18T19:13:44.985Z,248.00
2019-01-18T19:16:47.651Z,263.80
2019-01-18T19:19:46.559Z,263.20
2019-01-18T19:22:53.746Z,250.80
2019-01-18T19:25:49.597Z,252.60
2019-01-18T19:28:52.498Z,265.40
2019-01-18T19:31:55.341Z,266.40
2019-01-18T19:35:05.088Z,267.80
2019-01-18T19:38:27.730Z,266.50
2019-01-18T19:41:41.880Z,259.80
2019-01-18T19:44:41.728Z,246.80
2019-01-18T19:47:39.289Z,251.60
2019-01-18T19:50:52.655Z,246.20
2019-01-18T19:53:49.147Z,260.80
2019-01-18T19:56:58.686Z,243.80
2019-01-18T19:59:57.078Z,249.80
2019-01-18T20:03:00.557Z,230.20
2019-01-18T20:06:12.493Z,248.60
2019-01-18T20:09:13.597Z,242.20
2019-01-18T20:12:22.728Z,244.40
2019-01-18T20:15:17.313Z,236.60
2019-01-18T20:18:29.333Z,223.40
2019-01-18T20:21:36.103Z,238.25
2019-01-18T20:24:45.664Z,244.60
2019-01-18T20:27:57.123Z,255.00
2019-01-18T20:31:13.194Z,228.20
2019-01-18T20:34:20.175Z,232.80
2019-01-18T20:37:24.452Z,227.80
2019-01-18T20:40:42.155Z,232.40
2019-01-18T20:43:48.321Z,210.00
2019-01-18T20:46:55.124Z,198.00
2019-01-18T20:49:50.442Z,200.75
2019-01-18T20:52:59.504Z,200.50
2019-01-18T20:55:54.790Z,188.50
2019-01-18T20:58:56.704Z,181.00
2019-01-18T21:02:01.548Z,179.25
2019-01-18T21:05:25.220Z,184.75
2019-01-18T21:08:46.331Z,182.00
2019-01-18T21:11:42.053Z,183.25
2019-01-18T21:14:43.302Z,190.50
2019-01-18T21:17:59.837Z,189.75
2019-01-18T21:21:30.247Z,181.50
2019-01-18T21:24:44.899Z,163.75
2019-01-18T21:28:02.742Z,166.75
2019-01-18T21:31:15.996Z,176.75
2019-01-18T21:34:24.995Z,171.00
2019-01-18T21:37:44.483Z,183.75
2019-01-18T21:40:43.703Z,178.25
2019-01-18T21:44:08.067Z,168.00
2019-01-18T21:47:11.972Z,164.25
2019-01-18T21:50:00.650Z,181.25
2019-01-18T21:53:15.887Z,166.50
2019-01-18T21:56:27.129Z,178.00
2019-01-18T21:59:25.160Z,177.25
2019-01-18T22:02:22.399Z,168.25
2019-01-18T22:05:11.818Z,163.50
2019-01-18T22:07:51.144Z,170.00
2019-01-18T22:10:40.948Z,161.25
2019-01-18T22:13:42.884Z,169.50
2019-01-18T22:16:50.246Z,170.50
2019-01-18T22:20:11.280Z,152.25
2019-01-18T22:23:16.738Z,161.25
2019-01-18T22:26:18.781Z,151.50
2019-01-18T22:29:23.228Z,171.25
2019-01-18T22:32:35.117Z,171.50
2019-01-18T22:35:41.607Z,164.25
2019-01-18T22:38:52.242Z,155.00
2019-01-18T22:42:04.970Z,156.25
2019-01-18T22:45:09.668Z,155.25
2019-01-18T22:48:45.517Z,158.00
2019-01-18T22:51:58.353Z,156.00
2019-01-18T22:55:06.690Z,152.25
2019-01-18T22:58:17.144Z,149.25
2019-01-18T23:01:20.003Z,146.00
2019-01-18T23:04:29.888Z,151.75
2019-01-18T23:07:24.382Z,152.00
2019-01-18T23:10:57.766Z,163.50
2019-01-18T23:14:15.618Z,160.25
2019-01-18T23:17:32.032Z,142.50
2019-01-18T23:20:41.642Z,145.50
2019-01-18T23:23:54.469Z,153.00
2019-01-18T23:27:23.743Z,142.75
2019-01-18T23:30:40.931Z,144.75
2019-01-18T23:33:36.078Z,146.25
2019-01-18T23:36:34.702Z,145.25
2019-01-18T23:39:25.538Z,140.00
2019-01-18T23:42:42.596Z,131.00
2019-01-18T23:45:42.097Z,144.75
2019-01-18T23:48:48.930Z,137.00
2019-01-18T23:51:53.441Z,142.25
2019-01-18T23:55:14.952Z,141.00
2019-01-18T23:58:07.817Z,124.25
